AFR25 KLAX-LFPG
Flight info
| Callsign | AFR25 |
|---|---|
| Flight time | N/A |
| Altitude | 33000 |
| Route | ORCKA5 LAS Q70 BLIPP Q842 WINEN DCT HELPR DCT CKW DCT KD78U DCT KD87W DCT KP06Y DCT KP12A/N0480F350 DCT GABOV DCT ELVEL DCT 5430N08000W 57N070W DCT KLIPS DCT SINGA/M083F350 DCT RADUN DCT 61N050W/M084F370 6130N04000W 61N030W 59N020W DCT AGORI/N0478F370 DCT OSBOX DCT APSOV DCT PEPOD DCT MAKUX DCT SOSIM L15 KEPAD L151 MID/N0478F290 Y803 SFD UM605 BIBAX BIBAX9E |
| Aircraft | B77W/H-SDE1E2E3FGHIJ2J3J4J5M1RWXY/LB1D1 |
Departure
| Time | N/A |
|---|---|
| Airport | Los Angeles International Airport (KLAX) |
Arrival
| Time | 2026-05-04 12:39 |
|---|---|
| Airport | Charles de Gaulle International Airport (LFPG) |
| Time | Latitude | Longitude | Altitude | Speed | Heading |
|---|---|---|---|---|---|
| 2026-05-04 12:17 | 49.89828 | 1.12828 | 21200 ft | 364 kts | 155° |
| 2026-05-04 12:18 | 49.88578 | 1.13757 | 20986 ft | 366 kts | 155° |
| 2026-05-04 12:18 | 49.87226 | 1.14763 | 20760 ft | 368 kts | 155° |
| 2026-05-04 12:18 | 49.84862 | 1.16526 | 20354 ft | 367 kts | 155° |
| 2026-05-04 12:18 | 49.82565 | 1.18242 | 19955 ft | 367 kts | 155° |
| 2026-05-04 12:19 | 49.80271 | 1.19955 | 19581 ft | 366 kts | 155° |
| 2026-05-04 12:19 | 49.78019 | 1.21635 | 19189 ft | 365 kts | 155° |
| 2026-05-04 12:19 | 49.75698 | 1.23365 | 18812 ft | 365 kts | 155° |
| 2026-05-04 12:19 | 49.73452 | 1.25037 | 18436 ft | 362 kts | 155° |
| 2026-05-04 12:20 | 49.71187 | 1.26720 | 18007 ft | 360 kts | 155° |
| 2026-05-04 12:20 | 49.68935 | 1.28394 | 17583 ft | 357 kts | 155° |
| 2026-05-04 12:20 | 49.66712 | 1.30044 | 17191 ft | 352 kts | 155° |
| 2026-05-04 12:20 | 49.64517 | 1.31674 | 16825 ft | 348 kts | 155° |
| 2026-05-04 12:21 | 49.62350 | 1.33279 | 16454 ft | 344 kts | 155° |
| 2026-05-04 12:21 | 49.60204 | 1.34867 | 16069 ft | 341 kts | 155° |
| 2026-05-04 12:21 | 49.58070 | 1.36444 | 15731 ft | 340 kts | 155° |
| 2026-05-04 12:21 | 49.55934 | 1.38019 | 15379 ft | 342 kts | 155° |
| 2026-05-04 12:22 | 49.53780 | 1.39607 | 15007 ft | 344 kts | 155° |
| 2026-05-04 12:22 | 49.51626 | 1.41196 | 14651 ft | 344 kts | 155° |
| 2026-05-04 12:22 | 49.49469 | 1.42784 | 14295 ft | 343 kts | 155° |
| 2026-05-04 12:22 | 49.47325 | 1.44362 | 13920 ft | 340 kts | 155° |
| 2026-05-04 12:23 | 49.45201 | 1.45923 | 13527 ft | 336 kts | 155° |
| 2026-05-04 12:23 | 49.43104 | 1.47463 | 13142 ft | 332 kts | 155° |
| 2026-05-04 12:23 | 49.41035 | 1.48981 | 12777 ft | 328 kts | 155° |
| 2026-05-04 12:23 | 49.38989 | 1.50481 | 12425 ft | 325 kts | 155° |
| 2026-05-04 12:24 | 49.36955 | 1.51970 | 12080 ft | 323 kts | 155° |
| 2026-05-04 12:24 | 49.34935 | 1.53447 | 11741 ft | 320 kts | 154° |
| 2026-05-04 12:24 | 49.32937 | 1.54909 | 11404 ft | 315 kts | 154° |
| 2026-05-04 12:24 | 49.31192 | 1.56806 | 11084 ft | 307 kts | 131° |
| 2026-05-04 12:25 | 49.30123 | 1.59579 | 10882 ft | 300 kts | 111° |
| 2026-05-04 12:25 | 49.29667 | 1.62652 | 10693 ft | 294 kts | 96° |
| 2026-05-04 12:25 | 49.29531 | 1.65758 | 10526 ft | 291 kts | 94° |
| 2026-05-04 12:25 | 49.29433 | 1.68842 | 10357 ft | 289 kts | 94° |
| 2026-05-04 12:26 | 49.29319 | 1.71906 | 10203 ft | 287 kts | 94° |
| 2026-05-04 12:26 | 49.29177 | 1.74930 | 10047 ft | 283 kts | 98° |
| 2026-05-04 12:26 | 49.28558 | 1.77764 | 9826 ft | 284 kts | 118° |
| 2026-05-04 12:26 | 49.27566 | 1.80377 | 9561 ft | 283 kts | 120° |
| 2026-05-04 12:27 | 49.26575 | 1.82966 | 9326 ft | 279 kts | 120° |
| 2026-05-04 12:27 | 49.25612 | 1.85510 | 9102 ft | 274 kts | 119° |
| 2026-05-04 12:27 | 49.24677 | 1.88005 | 8897 ft | 267 kts | 119° |
| 2026-05-04 12:27 | 49.23772 | 1.90435 | 8701 ft | 260 kts | 118° |
| 2026-05-04 12:28 | 49.22888 | 1.92815 | 8509 ft | 254 kts | 118° |
| 2026-05-04 12:28 | 49.22037 | 1.95113 | 8309 ft | 248 kts | 118° |
| 2026-05-04 12:28 | 49.21198 | 1.97378 | 8098 ft | 242 kts | 118° |
| 2026-05-04 12:28 | 49.20378 | 1.99589 | 7901 ft | 236 kts | 118° |
| 2026-05-04 12:29 | 49.19587 | 2.01730 | 7734 ft | 228 kts | 118° |
| 2026-05-04 12:29 | 49.18818 | 2.03805 | 7593 ft | 221 kts | 118° |
| 2026-05-04 12:29 | 49.18060 | 2.05850 | 7445 ft | 222 kts | 118° |
| 2026-05-04 12:29 | 49.17301 | 2.07894 | 7258 ft | 220 kts | 118° |
| 2026-05-04 12:30 | 49.16548 | 2.09919 | 7083 ft | 217 kts | 120° |
| 2026-05-04 12:30 | 49.15513 | 2.11531 | 6832 ft | 216 kts | 154° |
| 2026-05-04 12:30 | 49.14081 | 2.12185 | 6686 ft | 219 kts | 165° |
| 2026-05-04 12:30 | 49.12573 | 2.12775 | 6444 ft | 226 kts | 164° |
| 2026-05-04 12:31 | 49.11061 | 2.13378 | 6179 ft | 224 kts | 164° |
| 2026-05-04 12:31 | 49.09569 | 2.13966 | 5953 ft | 219 kts | 164° |
| 2026-05-04 12:31 | 49.08118 | 2.14542 | 5701 ft | 213 kts | 165° |
| 2026-05-04 12:31 | 49.06701 | 2.15100 | 5471 ft | 206 kts | 165° |
| 2026-05-04 12:32 | 49.05341 | 2.15636 | 5302 ft | 196 kts | 164° |
| 2026-05-04 12:32 | 49.02706 | 2.16677 | 4913 ft | 196 kts | 164° |
| 2026-05-04 12:32 | 49.01445 | 2.17398 | 4663 ft | 189 kts | 141° |
| 2026-05-04 12:33 | 49.00728 | 2.18982 | 4497 ft | 186 kts | 105° |
| 2026-05-04 12:33 | 49.00717 | 2.20941 | 4313 ft | 187 kts | 83° |
| 2026-05-04 12:33 | 49.00848 | 2.22886 | 4137 ft | 181 kts | 85° |
| 2026-05-04 12:33 | 49.00965 | 2.24791 | 3949 ft | 182 kts | 85° |
| 2026-05-04 12:34 | 49.01078 | 2.26691 | 3707 ft | 177 kts | 85° |
| 2026-05-04 12:34 | 49.01180 | 2.28516 | 3464 ft | 169 kts | 86° |
| 2026-05-04 12:34 | 49.01275 | 2.30256 | 3255 ft | 163 kts | 86° |
| 2026-05-04 12:34 | 49.01369 | 2.32008 | 3063 ft | 168 kts | 86° |
| 2026-05-04 12:35 | 49.01464 | 2.33764 | 2827 ft | 164 kts | 86° |
| 2026-05-04 12:35 | 49.01554 | 2.35438 | 2593 ft | 153 kts | 86° |
| 2026-05-04 12:35 | 49.01637 | 2.36983 | 2377 ft | 142 kts | 86° |
| 2026-05-04 12:35 | 49.01717 | 2.38488 | 2218 ft | 144 kts | 86° |
| 2026-05-04 12:36 | 49.01799 | 2.39998 | 2031 ft | 141 kts | 86° |
| 2026-05-04 12:36 | 49.01879 | 2.41483 | 1836 ft | 141 kts | 86° |
| 2026-05-04 12:36 | 49.01958 | 2.42960 | 1634 ft | 139 kts | 86° |
| 2026-05-04 12:36 | 49.02047 | 2.44421 | 1434 ft | 137 kts | 84° |
| 2026-05-04 12:37 | 49.02149 | 2.45836 | 1231 ft | 133 kts | 88° |
| 2026-05-04 12:37 | 49.02197 | 2.47260 | 1066 ft | 137 kts | 86° |
| 2026-05-04 12:37 | 49.02277 | 2.48730 | 951 ft | 140 kts | 85° |
| 2026-05-04 12:37 | 49.02359 | 2.50232 | 697 ft | 142 kts | 86° |
| 2026-05-04 12:38 | 49.02437 | 2.51742 | 500 ft | 140 kts | 86° |
| 2026-05-04 12:38 | 49.02515 | 2.53189 | 372 ft | 132 kts | 86° |
| 2026-05-04 12:38 | 49.02578 | 2.54426 | 363 ft | 96 kts | 85° |
| 2026-05-04 12:38 | 49.02607 | 2.54972 | 364 ft | 61 kts | 85° |
| 2026-05-04 12:39 | 49.02632 | 2.55447 | 361 ft | 35 kts | 85° |
| 2026-05-04 12:39 | 49.02638 | 2.55741 | 367 ft | 24 kts | 104° |
| 2026-05-04 12:39 | 49.02563 | 2.55915 | 367 ft | 9 kts | 149° |
| 2026-05-04 12:39 | 49.02506 | 2.55943 | 367 ft | 9 kts | 172° |
| 2026-05-04 12:40 | 49.02445 | 2.55951 | 365 ft | 8 kts | 176° |
| 2026-05-04 12:40 | 49.02384 | 2.55958 | 364 ft | 10 kts | 175° |
| 2026-05-04 12:40 | 49.02311 | 2.55967 | 364 ft | 11 kts | 175° |
| 2026-05-04 12:40 | 49.02233 | 2.55977 | 364 ft | 11 kts | 175° |
| 2026-05-04 12:41 | 49.02158 | 2.55986 | 362 ft | 10 kts | 178° |
| 2026-05-04 12:41 | 49.02119 | 2.55965 | 363 ft | 1 kts | 216° |
| 2026-05-04 12:41 | 49.02101 | 2.55932 | 366 ft | 8 kts | 232° |
| 2026-05-04 12:41 | 49.02049 | 2.55877 | 366 ft | 10 kts | 197° |
| 2026-05-04 12:42 | 49.01981 | 2.55876 | 362 ft | 10 kts | 176° |
| 2026-05-04 12:42 | 49.01922 | 2.55918 | 364 ft | 10 kts | 120° |
| 2026-05-04 12:42 | 49.01913 | 2.56023 | 359 ft | 10 kts | 89° |
| 2026-05-04 12:42 | 49.01917 | 2.56132 | 366 ft | 10 kts | 87° |
| 2026-05-04 12:43 | 49.01922 | 2.56240 | 359 ft | 10 kts | 85° |
| 2026-05-04 12:43 | 49.01928 | 2.56349 | 365 ft | 10 kts | 85° |
| 2026-05-04 12:43 | 49.01934 | 2.56457 | 366 ft | 11 kts | 85° |
| 2026-05-04 12:43 | 49.01943 | 2.56630 | 365 ft | 20 kts | 85° |
| 2026-05-04 12:44 | 49.01954 | 2.56833 | 359 ft | 20 kts | 86° |
| 2026-05-04 12:44 | 49.01966 | 2.57038 | 364 ft | 19 kts | 85° |
| 2026-05-04 12:44 | 49.01976 | 2.57232 | 366 ft | 18 kts | 85° |
| 2026-05-04 12:44 | 49.01985 | 2.57418 | 359 ft | 18 kts | 85° |
| 2026-05-04 12:45 | 49.01995 | 2.57595 | 361 ft | 13 kts | 85° |
| 2026-05-04 12:45 | 49.01998 | 2.57732 | 364 ft | 13 kts | 95° |
| 2026-05-04 12:45 | 49.01969 | 2.57857 | 365 ft | 13 kts | 122° |
| 2026-05-04 12:45 | 49.01904 | 2.57949 | 367 ft | 13 kts | 150° |
| 2026-05-04 12:46 | 49.01817 | 2.57986 | 366 ft | 13 kts | 172° |
| 2026-05-04 12:46 | 49.01728 | 2.58002 | 365 ft | 13 kts | 176° |
| 2026-05-04 12:46 | 49.01637 | 2.58010 | 364 ft | 13 kts | 175° |
| 2026-05-04 12:46 | 49.01547 | 2.58021 | 365 ft | 13 kts | 175° |
| 2026-05-04 12:47 | 49.01433 | 2.58036 | 362 ft | 19 kts | 175° |
| 2026-05-04 12:47 | 49.01322 | 2.58050 | 367 ft | 14 kts | 175° |
| 2026-05-04 12:47 | 49.01226 | 2.58061 | 365 ft | 14 kts | 175° |
| 2026-05-04 12:47 | 49.01130 | 2.58073 | 359 ft | 14 kts | 175° |
| 2026-05-04 12:48 | 49.01034 | 2.58085 | 362 ft | 14 kts | 176° |
| 2026-05-04 12:48 | 49.00946 | 2.58116 | 364 ft | 12 kts | 147° |
| 2026-05-04 12:48 | 49.00914 | 2.58224 | 364 ft | 12 kts | 87° |
| 2026-05-04 12:48 | 49.00920 | 2.58350 | 361 ft | 12 kts | 86° |
| 2026-05-04 12:49 | 49.00928 | 2.58476 | 365 ft | 12 kts | 84° |
| 2026-05-04 12:49 | 49.00930 | 2.58558 | 364 ft | 5 kts | 97° |
| 2026-05-04 12:49 | 49.00912 | 2.58597 | 367 ft | 5 kts | 138° |
| 2026-05-04 12:49 | 49.00885 | 2.58625 | 365 ft | 5 kts | 150° |
| 2026-05-04 12:50 | 49.00826 | 2.58667 | 362 ft | 9 kts | 158° |
| 2026-05-04 12:50 | 49.00766 | 2.58686 | 360 ft | 11 kts | 174° |
| 2026-05-04 12:50 | 49.00673 | 2.58699 | 365 ft | 13 kts | 175° |
| 2026-05-04 12:50 | 49.00584 | 2.58711 | 359 ft | 13 kts | 175° |
| 2026-05-04 12:51 | 49.00498 | 2.58722 | 362 ft | 10 kts | 175° |
| 2026-05-04 12:51 | 49.00446 | 2.58729 | 367 ft | 6 kts | 175° |
| 2026-05-04 12:51 | 49.00402 | 2.58734 | 362 ft | 6 kts | 175° |
| 2026-05-04 12:51 | 49.00358 | 2.58740 | 365 ft | 6 kts | 175° |
| 2026-05-04 12:52 | 49.00314 | 2.58745 | 362 ft | 6 kts | 176° |
| 2026-05-04 12:52 | 49.00271 | 2.58759 | 362 ft | 6 kts | 154° |
| 2026-05-04 12:52 | 49.00256 | 2.58821 | 365 ft | 7 kts | 94° |
| 2026-05-04 12:52 | 49.00257 | 2.58892 | 359 ft | 7 kts | 84° |
| 2026-05-04 12:53 | 49.00261 | 2.58962 | 362 ft | 6 kts | 85° |
| 2026-05-04 12:53 | 49.00263 | 2.58983 | 367 ft | 2 kts | 85° |
| 2026-05-04 12:53 | 49.00263 | 2.58999 | 366 ft | 1 kts | 85° |
| 2026-05-04 12:53 | 49.00264 | 2.59001 | 366 ft | 0 kts | 85° |